createdAt,value
2023-05-14T00:01:45.120Z,23
2023-05-14T00:06:45.133Z,25
2023-05-14T00:11:45.134Z,10
2023-05-14T00:16:45.125Z,19
2023-05-14T00:21:45.138Z,15
2023-05-14T00:26:45.128Z,19
2023-05-14T00:31:45.140Z,21
2023-05-14T00:36:45.131Z,18
2023-05-14T00:41:45.143Z,19
2023-05-14T00:46:45.144Z,21
2023-05-14T00:51:45.135Z,13
2023-05-14T00:56:45.148Z,25
2023-05-14T01:01:45.138Z,15
2023-05-14T01:06:45.150Z,13
2023-05-14T01:11:45.151Z,14
2023-05-14T01:16:45.153Z,8
2023-05-14T01:21:45.155Z,12
2023-05-14T01:26:45.144Z,9
2023-05-14T01:31:45.157Z,8
2023-05-14T01:36:45.147Z,9
2023-05-14T01:41:45.159Z,12
2023-05-14T01:46:45.161Z,12
2023-05-14T01:51:45.151Z,21
2023-05-14T01:56:45.164Z,20
2023-05-14T02:01:45.154Z,13
2023-05-14T02:06:45.166Z,21
2023-05-14T02:11:45.167Z,10
2023-05-14T02:16:45.169Z,11
2023-05-14T02:21:45.171Z,15
2023-05-14T02:26:45.161Z,13
2023-05-14T02:31:45.173Z,11
2023-05-14T02:36:45.163Z,5
2023-05-14T02:41:45.176Z,14
2023-05-14T02:46:45.177Z,11
2023-05-14T02:51:45.167Z,12
2023-05-14T02:56:45.180Z,8
2023-05-14T03:01:45.170Z,14
2023-05-14T03:06:45.182Z,13
2023-05-14T03:11:45.173Z,11
2023-05-14T03:16:46.178Z,10
2023-05-14T03:21:45.210Z,10
2023-05-14T03:26:45.177Z,11
2023-05-14T03:31:45.192Z,17
2023-05-14T03:36:45.180Z,15
2023-05-14T03:41:45.192Z,9
2023-05-14T03:46:45.193Z,16
2023-05-14T03:51:45.195Z,10
2023-05-14T03:56:45.197Z,9
2023-05-14T04:01:45.186Z,13
2023-05-14T04:06:45.199Z,9
2023-05-14T04:11:45.189Z,11
2023-05-14T04:16:52.167Z,10
2023-05-14T04:21:45.203Z,12
2023-05-14T04:26:45.193Z,8
2023-05-14T04:31:45.206Z,9
2023-05-14T04:36:45.196Z,4
2023-05-14T04:41:45.208Z,7
2023-05-14T04:46:45.209Z,5
2023-05-14T04:51:45.211Z,7
2023-05-14T04:56:45.213Z,6
2023-05-14T05:01:45.203Z,10
2023-05-14T05:06:45.215Z,8
2023-05-14T05:11:45.206Z,9
2023-05-14T05:16:58.170Z,9
2023-05-14T05:21:45.219Z,11
2023-05-14T05:26:45.210Z,6
2023-05-14T05:31:45.223Z,7
2023-05-14T05:36:45.213Z,6
2023-05-14T05:41:45.225Z,5
2023-05-14T05:46:45.226Z,7
2023-05-14T05:51:45.228Z,9
2023-05-14T05:56:45.294Z,12
2023-05-14T06:01:45.220Z,16
2023-05-14T06:06:45.276Z,10
2023-05-14T06:11:45.223Z,20
2023-05-14T06:17:04.190Z,23
2023-05-14T06:21:45.237Z,21
2023-05-14T06:26:45.264Z,15
2023-05-14T06:31:45.241Z,20
2023-05-14T06:36:45.232Z,24
2023-05-14T06:41:45.244Z,21
2023-05-14T06:46:45.235Z,21
2023-05-14T06:51:45.248Z,28
2023-05-14T06:56:45.250Z,29
2023-05-14T07:01:45.241Z,36
2023-05-14T07:06:45.254Z,25
2023-05-14T07:11:45.244Z,20
2023-05-14T07:17:10.173Z,24
2023-05-14T07:21:45.259Z,39
2023-05-14T07:26:45.261Z,34
2023-05-14T07:31:45.263Z,41
2023-05-14T07:36:45.254Z,38
2023-05-14T07:41:45.267Z,27
2023-05-14T07:46:45.257Z,21
2023-05-14T07:51:45.270Z,25
2023-05-14T07:56:45.272Z,37
2023-05-14T08:01:45.263Z,46
2023-05-14T08:06:45.277Z,36
2023-05-14T08:11:45.267Z,39
2023-05-14T08:16:59.716Z,44
2023-05-14T08:21:45.282Z,40
2023-05-14T08:26:45.284Z,41
2023-05-14T08:31:45.286Z,51
2023-05-14T08:36:45.277Z,50
2023-05-14T08:41:45.290Z,55
2023-05-14T08:46:45.281Z,52
2023-05-14T08:51:45.294Z,44
2023-05-14T08:56:45.296Z,49
2023-05-14T09:01:45.363Z,48
2023-05-14T09:06:45.301Z,43
2023-05-14T09:11:45.292Z,40
2023-05-14T09:16:45.306Z,51
2023-05-14T09:21:45.297Z,66
2023-05-14T09:26:45.311Z,63
2023-05-14T09:31:45.314Z,75
2023-05-14T09:36:45.305Z,88
2023-05-14T09:41:45.318Z,54
2023-05-14T09:46:45.309Z,66
2023-05-14T09:51:45.363Z,79
2023-05-14T09:56:45.325Z,87
2023-05-14T10:01:45.327Z,95
2023-05-14T10:06:45.330Z,78
2023-05-14T10:11:45.321Z,77
2023-05-14T10:16:45.334Z,109
2023-05-14T10:21:45.326Z,105
2023-05-14T10:26:45.339Z,93
2023-05-14T10:31:45.342Z,95
2023-05-14T10:36:45.333Z,80
2023-05-14T10:41:45.392Z,67
2023-05-14T10:46:45.339Z,85
2023-05-14T10:51:45.352Z,126
2023-05-14T10:56:45.354Z,131
2023-05-14T11:06:45.360Z,127
2023-05-14T11:11:45.351Z,100
2023-05-14T11:16:45.364Z,102
2023-05-14T11:21:45.356Z,100
2023-05-14T11:26:45.370Z,97
2023-05-14T11:31:45.372Z,111
2023-05-14T11:36:45.364Z,116
2023-05-14T11:41:45.378Z,110
2023-05-14T11:46:45.369Z,112
2023-05-14T11:51:45.382Z,102
2023-05-14T11:56:45.384Z,79
2023-05-14T12:01:45.387Z,102
2023-05-14T12:06:45.390Z,110
2023-05-14T12:11:45.381Z,95
2023-05-14T12:16:45.395Z,141
2023-05-14T12:21:45.386Z,110
2023-05-14T12:26:45.400Z,94
2023-05-14T12:31:45.402Z,110
2023-05-14T12:36:45.429Z,137
2023-05-14T12:41:45.408Z,123
2023-05-14T12:46:45.399Z,128
2023-05-14T12:51:45.412Z,130
2023-05-14T12:56:45.415Z,121
2023-05-14T13:01:45.416Z,159
2023-05-14T13:06:45.419Z,134
2023-05-14T13:11:45.410Z,136
2023-05-14T13:16:45.424Z,146
2023-05-14T13:21:45.415Z,141
2023-05-14T13:26:45.429Z,143
2023-05-14T13:31:45.431Z,144
2023-05-14T13:36:45.434Z,130
2023-05-14T13:41:45.437Z,127
2023-05-14T13:46:45.428Z,146
2023-05-14T13:51:45.441Z,161
2023-05-14T13:56:45.433Z,150
2023-05-14T14:01:45.447Z,168
2023-05-14T14:06:45.449Z,151
2023-05-14T14:11:45.441Z,151
2023-05-14T14:16:45.455Z,166
2023-05-14T14:21:45.446Z,151
2023-05-14T14:26:45.459Z,136
2023-05-14T14:31:45.462Z,136
2023-05-14T14:36:45.464Z,168
2023-05-14T14:41:45.468Z,166
2023-05-14T14:46:45.459Z,152
2023-05-14T14:51:45.472Z,122
2023-05-14T14:56:45.464Z,132
2023-05-14T15:01:45.478Z,148
2023-05-14T15:06:45.480Z,121
2023-05-14T15:11:45.471Z,123
2023-05-14T15:16:45.485Z,139
2023-05-14T15:21:45.476Z,145
2023-05-14T15:26:45.490Z,136
2023-05-14T15:31:45.481Z,138
2023-05-14T15:36:45.495Z,139
2023-05-14T15:41:45.521Z,130
2023-05-14T15:46:45.489Z,153
2023-05-14T15:51:45.505Z,109
2023-05-14T15:56:45.494Z,107
2023-05-14T16:01:45.507Z,137
2023-05-14T16:06:45.510Z,130
2023-05-14T16:11:45.512Z,118
2023-05-14T16:16:45.515Z,117
2023-05-14T16:21:45.506Z,139
2023-05-14T16:26:45.519Z,145
2023-05-14T16:31:45.511Z,153
2023-05-14T16:36:45.524Z,119
2023-05-14T16:41:45.526Z,129
2023-05-14T16:46:45.518Z,132
2023-05-14T16:51:45.532Z,133
2023-05-14T16:56:45.522Z,134
2023-05-14T17:01:45.535Z,138
2023-05-14T17:06:45.538Z,137
2023-05-14T17:11:45.540Z,112
2023-05-14T17:16:45.543Z,121
2023-05-14T17:21:45.533Z,100
2023-05-14T17:26:45.546Z,104
2023-05-14T17:31:45.538Z,112
2023-05-14T17:36:45.551Z,111
2023-05-14T17:41:45.553Z,86
2023-05-14T17:46:45.544Z,98
2023-05-14T17:51:45.558Z,102
2023-05-14T17:56:45.548Z,112
2023-05-14T18:01:45.561Z,134
2023-05-14T18:06:45.563Z,142
2023-05-14T18:11:45.565Z,113
2023-05-14T18:16:45.632Z,116
2023-05-14T18:21:45.559Z,94
2023-05-14T18:26:45.615Z,85
2023-05-14T18:31:45.563Z,88
2023-05-14T18:36:45.576Z,83
2023-05-14T18:41:45.578Z,69
2023-05-14T18:46:45.621Z,61
2023-05-14T18:51:45.582Z,71
2023-05-14T18:56:45.573Z,77
2023-05-14T19:01:45.586Z,89
2023-05-14T19:06:45.577Z,61
2023-05-14T19:11:45.589Z,52
2023-05-14T19:16:45.591Z,71
2023-05-14T19:21:45.582Z,66
2023-05-14T19:26:45.596Z,67
2023-05-14T19:31:45.586Z,62
2023-05-14T19:36:45.598Z,58
2023-05-14T19:41:45.600Z,53
2023-05-14T19:46:45.603Z,53
2023-05-14T19:51:45.604Z,55
2023-05-14T19:56:45.595Z,48
2023-05-14T20:01:45.607Z,41
2023-05-14T20:06:45.598Z,44
2023-05-14T20:11:45.611Z,38
2023-05-14T20:16:45.612Z,45
2023-05-14T20:21:45.603Z,24
2023-05-14T20:26:45.617Z,33
2023-05-14T20:31:45.607Z,41
2023-05-14T20:36:45.620Z,32
2023-05-14T20:41:45.621Z,34
2023-05-14T20:46:45.623Z,48
2023-05-14T20:51:45.625Z,39
2023-05-14T20:56:45.615Z,45
2023-05-14T21:01:45.680Z,65
2023-05-14T21:06:45.619Z,24
2023-05-14T21:11:45.672Z,21
2023-05-14T21:16:45.633Z,27
2023-05-14T21:21:45.635Z,38
2023-05-14T21:26:45.637Z,35
2023-05-14T21:31:45.627Z,33
2023-05-14T21:36:45.640Z,33
2023-05-14T21:41:45.630Z,22
2023-05-14T21:46:45.643Z,28
2023-05-14T21:51:45.644Z,24
2023-05-14T21:56:45.635Z,20
2023-05-14T22:01:45.648Z,33
2023-05-14T22:06:45.638Z,23
2023-05-14T22:11:45.651Z,30
2023-05-14T22:16:45.652Z,27
2023-05-14T22:21:45.654Z,24
2023-05-14T22:26:45.656Z,21
2023-05-14T22:31:45.646Z,26
2023-05-14T22:36:45.659Z,29
2023-05-14T22:41:45.649Z,28
2023-05-14T22:46:45.662Z,21
2023-05-14T22:51:45.663Z,27
2023-05-14T22:56:45.654Z,21
2023-05-14T23:01:45.667Z,25
2023-05-14T23:06:45.657Z,24
2023-05-14T23:11:45.669Z,19
2023-05-14T23:16:45.671Z,21
2023-05-14T23:21:45.673Z,25
2023-05-14T23:26:45.675Z,18
2023-05-14T23:31:45.665Z,24
2023-05-14T23:36:45.729Z,22
2023-05-14T23:41:45.668Z,25
2023-05-14T23:46:45.680Z,19
2023-05-14T23:51:45.681Z,18
2023-05-14T23:56:45.672Z,21
